sensor_id;sensor_type;location;lat;lon;timestamp;pressure;altitude;pressure_sealevel;temperature;humidity
73063;BME280;61230;46.328;19.972;2022-12-18T00:01:24;102061.34;;;-1.71;94.62
73063;BME280;61230;46.328;19.972;2022-12-18T00:03:54;102063.81;;;-1.65;94.37
73063;BME280;61230;46.328;19.972;2022-12-18T00:06:24;102065.50;;;-1.63;94.42
73063;BME280;61230;46.328;19.972;2022-12-18T00:08:54;102068.22;;;-1.70;94.97
73063;BME280;61230;46.328;19.972;2022-12-18T00:11:25;102063.78;;;-1.62;94.95
73063;BME280;61230;46.328;19.972;2022-12-18T00:13:55;102075.91;;;-1.67;94.97
73063;BME280;61230;46.328;19.972;2022-12-18T00:16:24;102090.47;;;-1.65;94.14
73063;BME280;61230;46.328;19.972;2022-12-18T00:18:56;102080.84;;;-1.55;94.12
73063;BME280;61230;46.328;19.972;2022-12-18T00:21:28;102088.72;;;-1.63;94.63
73063;BME280;61230;46.328;19.972;2022-12-18T00:23:56;102093.03;;;-1.62;94.31
73063;BME280;61230;46.328;19.972;2022-12-18T00:26:29;102094.75;;;-1.62;93.77
73063;BME280;61230;46.328;19.972;2022-12-18T00:29:00;102102.44;;;-1.59;93.95
73063;BME280;61230;46.328;19.972;2022-12-18T00:31:30;102105.84;;;-1.59;93.39
73063;BME280;61230;46.328;19.972;2022-12-18T00:33:58;102112.22;;;-1.84;94.82
73063;BME280;61230;46.328;19.972;2022-12-18T00:36:29;102120.66;;;-1.71;94.23
73063;BME280;61230;46.328;19.972;2022-12-18T00:38:59;102123.22;;;-1.70;94.13
73063;BME280;61230;46.328;19.972;2022-12-18T00:41:27;102130.16;;;-1.73;93.89
73063;BME280;61230;46.328;19.972;2022-12-18T00:44:16;102139.56;;;-1.69;94.61
73063;BME280;61230;46.328;19.972;2022-12-18T00:46:45;102141.44;;;-1.81;94.44
73063;BME280;61230;46.328;19.972;2022-12-18T00:49:15;102144.25;;;-1.99;95.22
73063;BME280;61230;46.328;19.972;2022-12-18T00:51:42;102138.91;;;-1.85;96.26
73063;BME280;61230;46.328;19.972;2022-12-18T00:54:11;102151.81;;;-1.87;96.15
73063;BME280;61230;46.328;19.972;2022-12-18T00:56:39;102158.63;;;-1.81;94.76
73063;BME280;61230;46.328;19.972;2022-12-18T00:59:17;102173.00;;;-1.63;95.06
73063;BME280;61230;46.328;19.972;2022-12-18T01:01:45;102167.06;;;-1.68;95.08
73063;BME280;61230;46.328;19.972;2022-12-18T01:04:14;102175.31;;;-1.42;93.79
73063;BME280;61230;46.328;19.972;2022-12-18T01:06:44;102178.47;;;-1.24;92.79
73063;BME280;61230;46.328;19.972;2022-12-18T01:09:12;102175.78;;;-1.18;91.51
73063;BME280;61230;46.328;19.972;2022-12-18T01:11:40;102180.31;;;-1.32;92.34
73063;BME280;61230;46.328;19.972;2022-12-18T01:14:08;102186.13;;;-1.18;92.35
73063;BME280;61230;46.328;19.972;2022-12-18T01:16:37;102189.94;;;-1.43;93.80
73063;BME280;61230;46.328;19.972;2022-12-18T01:19:05;102197.53;;;-1.32;94.42
73063;BME280;61230;46.328;19.972;2022-12-18T01:21:33;102200.31;;;-1.46;94.50
73063;BME280;61230;46.328;19.972;2022-12-18T01:24:04;102196.22;;;-1.02;93.40
73063;BME280;61230;46.328;19.972;2022-12-18T01:26:31;102199.87;;;-1.17;92.48
73063;BME280;61230;46.328;19.972;2022-12-18T01:28:59;102193.00;;;-1.18;92.46
73063;BME280;61230;46.328;19.972;2022-12-18T01:31:31;102201.88;;;-1.36;94.71
73063;BME280;61230;46.328;19.972;2022-12-18T01:34:01;102192.06;;;-1.12;92.79
73063;BME280;61230;46.328;19.972;2022-12-18T01:36:32;102197.00;;;-0.99;91.82
73063;BME280;61230;46.328;19.972;2022-12-18T01:39:04;102195.22;;;-0.94;92.61
73063;BME280;61230;46.328;19.972;2022-12-18T01:41:34;102197.53;;;-1.32;92.02
73063;BME280;61230;46.328;19.972;2022-12-18T01:49:57;102213.44;;;-1.62;93.94
73063;BME280;61230;46.328;19.972;2022-12-18T01:52:29;102220.63;;;-1.25;93.84
73063;BME280;61230;46.328;19.972;2022-12-18T01:54:59;102211.69;;;-1.01;91.99
73063;BME280;61230;46.328;19.972;2022-12-18T01:57:28;102210.91;;;-1.06;92.34
73063;BME280;61230;46.328;19.972;2022-12-18T02:00:00;102215.72;;;-0.83;92.24
73063;BME280;61230;46.328;19.972;2022-12-18T02:02:40;102217.34;;;-0.79;90.11
73063;BME280;61230;46.328;19.972;2022-12-18T02:05:10;102225.06;;;-0.76;91.06
73063;BME280;61230;46.328;19.972;2022-12-18T02:10:40;102227.69;;;-0.79;91.82
73063;BME280;61230;46.328;19.972;2022-12-18T02:13:36;102233.34;;;-0.56;90.07
73063;BME280;61230;46.328;19.972;2022-12-18T02:18:41;102242.63;;;-0.43;89.23
73063;BME280;61230;46.328;19.972;2022-12-18T02:26:37;102247.69;;;-0.38;89.26
73063;BME280;61230;46.328;19.972;2022-12-18T02:29:13;102239.19;;;-0.45;89.30
73063;BME280;61230;46.328;19.972;2022-12-18T02:31:45;102248.50;;;-0.35;89.46
73063;BME280;61230;46.328;19.972;2022-12-18T02:34:18;102245.78;;;-0.27;89.70
73063;BME280;61230;46.328;19.972;2022-12-18T02:36:48;102252.66;;;-0.28;90.50
73063;BME280;61230;46.328;19.972;2022-12-18T02:39:20;102257.59;;;-0.14;90.58
73063;BME280;61230;46.328;19.972;2022-12-18T02:41:50;102256.09;;;-0.26;89.58
73063;BME280;61230;46.328;19.972;2022-12-18T02:44:20;102264.44;;;-0.61;90.59
73063;BME280;61230;46.328;19.972;2022-12-18T02:46:52;102262.28;;;-0.36;89.78
73063;BME280;61230;46.328;19.972;2022-12-18T02:57:46;102277.91;;;-0.40;92.25
73063;BME280;61230;46.328;19.972;2022-12-18T03:00:27;102276.19;;;-0.41;92.00
73063;BME280;61230;46.328;19.972;2022-12-18T03:03:01;102283.75;;;-0.84;93.22
73063;BME280;61230;46.328;19.972;2022-12-18T03:08:17;102278.00;;;-0.46;92.44
73063;BME280;61230;46.328;19.972;2022-12-18T03:11:03;102283.03;;;-0.39;92.61
73063;BME280;61230;46.328;19.972;2022-12-18T03:13:35;102295.72;;;-0.79;93.94
73063;BME280;61230;46.328;19.972;2022-12-18T03:16:07;102295.47;;;-0.61;94.12
73063;BME280;61230;46.328;19.972;2022-12-18T03:18:39;102301.75;;;-0.77;94.65
73063;BME280;61230;46.328;19.972;2022-12-18T03:21:10;102289.97;;;-0.96;94.70
73063;BME280;61230;46.328;19.972;2022-12-18T03:23:46;102295.66;;;-0.73;94.91
73063;BME280;61230;46.328;19.972;2022-12-18T03:26:19;102298.34;;;-0.82;94.21
73063;BME280;61230;46.328;19.972;2022-12-18T03:28:54;102309.13;;;-0.52;94.13
73063;BME280;61230;46.328;19.972;2022-12-18T03:31:27;102313.72;;;-0.73;93.86
73063;BME280;61230;46.328;19.972;2022-12-18T03:34:04;102324.53;;;-0.46;94.12
73063;BME280;61230;46.328;19.972;2022-12-18T03:36:37;102319.28;;;-0.40;93.47
73063;BME280;61230;46.328;19.972;2022-12-18T03:39:05;102313.00;;;-0.26;92.80
73063;BME280;61230;46.328;19.972;2022-12-18T03:41:41;102319.22;;;-0.37;93.23
73063;BME280;61230;46.328;19.972;2022-12-18T03:44:15;102322.84;;;-0.49;93.34
73063;BME280;61230;46.328;19.972;2022-12-18T03:49:50;102316.69;;;-0.42;92.84
73063;BME280;61230;46.328;19.972;2022-12-18T03:52:26;102316.00;;;-0.53;93.23
73063;BME280;61230;46.328;19.972;2022-12-18T03:54:58;102322.72;;;-0.41;93.01
73063;BME280;61230;46.328;19.972;2022-12-18T03:57:29;102325.31;;;-0.41;93.13
73063;BME280;61230;46.328;19.972;2022-12-18T04:00:09;102335.56;;;-0.92;94.74
73063;BME280;61230;46.328;19.972;2022-12-18T04:02:44;102337.50;;;-0.49;93.93
73063;BME280;61230;46.328;19.972;2022-12-18T04:05:15;102339.31;;;-0.54;94.10
73063;BME280;61230;46.328;19.972;2022-12-18T04:07:44;102339.53;;;-0.70;94.96
73063;BME280;61230;46.328;19.972;2022-12-18T04:10:14;102343.78;;;-0.66;94.24
73063;BME280;61230;46.328;19.972;2022-12-18T04:12:43;102350.59;;;-0.60;94.47
73063;BME280;61230;46.328;19.972;2022-12-18T04:15:11;102360.91;;;-0.59;93.85
73063;BME280;61230;46.328;19.972;2022-12-18T04:17:46;102358.19;;;-0.49;93.86
73063;BME280;61230;46.328;19.972;2022-12-18T04:20:15;102364.09;;;-0.41;93.75
73063;BME280;61230;46.328;19.972;2022-12-18T04:22:43;102365.75;;;-0.37;94.03
73063;BME280;61230;46.328;19.972;2022-12-18T04:25:10;102369.13;;;-0.34;94.17
73063;BME280;61230;46.328;19.972;2022-12-18T04:27:39;102375.13;;;-0.29;94.42
73063;BME280;61230;46.328;19.972;2022-12-18T04:30:08;102386.37;;;-0.31;94.14
73063;BME280;61230;46.328;19.972;2022-12-18T04:32:36;102381.03;;;-0.22;94.65
73063;BME280;61230;46.328;19.972;2022-12-18T04:35:04;102390.69;;;-0.33;94.19
73063;BME280;61230;46.328;19.972;2022-12-18T04:37:34;102394.16;;;-0.34;93.78
73063;BME280;61230;46.328;19.972;2022-12-18T04:40:02;102398.44;;;-0.33;93.74
73063;BME280;61230;46.328;19.972;2022-12-18T04:42:31;102398.09;;;-0.11;94.69
73063;BME280;61230;46.328;19.972;2022-12-18T04:44:58;102402.47;;;-0.16;93.85
73063;BME280;61230;46.328;19.972;2022-12-18T04:47:26;102407.56;;;-0.11;93.28
73063;BME280;61230;46.328;19.972;2022-12-18T04:49:54;102407.47;;;-0.05;94.81
73063;BME280;61230;46.328;19.972;2022-12-18T04:52:21;102412.78;;;-0.13;93.75
73063;BME280;61230;46.328;19.972;2022-12-18T04:54:52;102420.41;;;-0.05;93.93
73063;BME280;61230;46.328;19.972;2022-12-18T04:57:19;102415.22;;;-0.05;93.47
73063;BME280;61230;46.328;19.972;2022-12-18T04:59:47;102415.31;;;-0.10;94.03
73063;BME280;61230;46.328;19.972;2022-12-18T05:02:14;102419.69;;;-0.13;93.81
73063;BME280;61230;46.328;19.972;2022-12-18T05:04:42;102425.59;;;-0.04;94.62
73063;BME280;61230;46.328;19.972;2022-12-18T05:07:10;102419.63;;;-0.10;94.50
73063;BME280;61230;46.328;19.972;2022-12-18T05:09:37;102421.44;;;-0.15;94.22
73063;BME280;61230;46.328;19.972;2022-12-18T05:12:05;102431.88;;;-0.23;94.56
73063;BME280;61230;46.328;19.972;2022-12-18T05:14:32;102428.56;;;-0.29;93.33
73063;BME280;61230;46.328;19.972;2022-12-18T05:17:00;102430.28;;;-0.30;94.79
73063;BME280;61230;46.328;19.972;2022-12-18T05:19:28;102432.12;;;-0.38;94.20
73063;BME280;61230;46.328;19.972;2022-12-18T05:21:55;102436.50;;;-0.41;95.21
73063;BME280;61230;46.328;19.972;2022-12-18T05:24:22;102432.34;;;-0.51;95.11
73063;BME280;61230;46.328;19.972;2022-12-18T05:26:50;102441.97;;;-0.63;95.61
73063;BME280;61230;46.328;19.972;2022-12-18T05:29:18;102440.22;;;-0.61;95.66
73063;BME280;61230;46.328;19.972;2022-12-18T05:31:45;102445.53;;;-0.71;96.21
73063;BME280;61230;46.328;19.972;2022-12-18T05:34:13;102455.94;;;-0.77;96.55
73063;BME280;61230;46.328;19.972;2022-12-18T05:36:41;102461.16;;;-0.82;96.84
73063;BME280;61230;46.328;19.972;2022-12-18T05:39:09;102447.53;;;-0.94;96.61
73063;BME280;61230;46.328;19.972;2022-12-18T05:41:37;102460.37;;;-0.90;97.23
73063;BME280;61230;46.328;19.972;2022-12-18T05:44:04;102463.78;;;-0.86;97.91
73063;BME280;61230;46.328;19.972;2022-12-18T05:46:32;102473.56;;;-1.11;98.08
73063;BME280;61230;46.328;19.972;2022-12-18T05:49:00;102475.31;;;-1.16;98.61
73063;BME280;61230;46.328;19.972;2022-12-18T05:51:28;102469.34;;;-1.21;98.80
73063;BME280;61230;46.328;19.972;2022-12-18T05:53:55;102479.56;;;-1.10;98.51
73063;BME280;61230;46.328;19.972;2022-12-18T05:56:23;102481.34;;;-1.14;98.12
73063;BME280;61230;46.328;19.972;2022-12-18T05:58:52;102497.66;;;-1.13;98.18
73063;BME280;61230;46.328;19.972;2022-12-18T06:01:24;102496.88;;;-1.22;98.79
73063;BME280;61230;46.328;19.972;2022-12-18T06:03:53;102502.97;;;-1.27;99.14
73063;BME280;61230;46.328;19.972;2022-12-18T06:06:23;102506.41;;;-1.27;98.79
73063;BME280;61230;46.328;19.972;2022-12-18T06:08:52;102497.94;;;-1.41;100.00
73063;BME280;61230;46.328;19.972;2022-12-18T06:11:22;102496.12;;;-1.28;99.14
73063;BME280;61230;46.328;19.972;2022-12-18T06:13:55;102498.81;;;-1.40;100.00
73063;BME280;61230;46.328;19.972;2022-12-18T06:16:27;102506.53;;;-1.37;99.42
73063;BME280;61230;46.328;19.972;2022-12-18T06:19:02;102493.72;;;-1.49;99.64
73063;BME280;61230;46.328;19.972;2022-12-18T06:21:31;102504.13;;;-1.58;99.99
73063;BME280;61230;46.328;19.972;2022-12-18T06:24:00;102514.28;;;-1.40;100.00
73063;BME280;61230;46.328;19.972;2022-12-18T06:26:27;102513.47;;;-1.44;99.50
73063;BME280;61230;46.328;19.972;2022-12-18T06:28:55;102512.75;;;-1.59;100.00
73063;BME280;61230;46.328;19.972;2022-12-18T06:31:24;102521.19;;;-1.39;100.00
73063;BME280;61230;46.328;19.972;2022-12-18T06:33:52;102527.25;;;-1.46;100.00
73063;BME280;61230;46.328;19.972;2022-12-18T06:36:20;102527.31;;;-1.54;100.00
73063;BME280;61230;46.328;19.972;2022-12-18T06:38:48;102532.44;;;-1.48;100.00
73063;BME280;61230;46.328;19.972;2022-12-18T06:41:18;102540.09;;;-1.37;100.00
73063;BME280;61230;46.328;19.972;2022-12-18T06:43:46;102535.94;;;-1.53;99.71
73063;BME280;61230;46.328;19.972;2022-12-18T06:46:14;102545.50;;;-1.72;100.00
73063;BME280;61230;46.328;19.972;2022-12-18T06:48:42;102544.50;;;-1.51;100.00
73063;BME280;61230;46.328;19.972;2022-12-18T06:51:10;102548.59;;;-1.28;100.00
73063;BME280;61230;46.328;19.972;2022-12-18T06:53:37;102548.53;;;-1.20;99.95
73063;BME280;61230;46.328;19.972;2022-12-18T06:56:07;102558.78;;;-1.11;99.31
73063;BME280;61230;46.328;19.972;2022-12-18T06:58:38;102559.69;;;-1.15;100.00
73063;BME280;61230;46.328;19.972;2022-12-18T07:01:08;102567.47;;;-1.17;99.55
73063;BME280;61230;46.328;19.972;2022-12-18T07:03:39;102579.50;;;-1.19;99.17
73063;BME280;61230;46.328;19.972;2022-12-18T07:06:19;102585.97;;;-1.76;100.00
73063;BME280;61230;46.328;19.972;2022-12-18T07:08:47;102592.75;;;-1.61;100.00
73063;BME280;61230;46.328;19.972;2022-12-18T07:11:16;102596.03;;;-1.41;100.00
73063;BME280;61230;46.328;19.972;2022-12-18T07:13:45;102595.03;;;-1.23;100.00
73063;BME280;61230;46.328;19.972;2022-12-18T07:16:18;102603.75;;;-1.38;100.00
73063;BME280;61230;46.328;19.972;2022-12-18T07:18:54;102608.16;;;-1.49;100.00
73063;BME280;61230;46.328;19.972;2022-12-18T07:21:23;102613.28;;;-1.46;100.00
73063;BME280;61230;46.328;19.972;2022-12-18T07:23:51;102611.69;;;-1.63;100.00
73063;BME280;61230;46.328;19.972;2022-12-18T07:26:20;102615.94;;;-1.53;100.00
73063;BME280;61230;46.328;19.972;2022-12-18T07:28:48;102613.34;;;-1.52;100.00
73063;BME280;61230;46.328;19.972;2022-12-18T07:31:20;102618.19;;;-1.12;100.00
73063;BME280;61230;46.328;19.972;2022-12-18T07:33:49;102622.44;;;-1.04;100.00
73063;BME280;61230;46.328;19.972;2022-12-18T07:36:18;102615.94;;;-1.53;100.00
73063;BME280;61230;46.328;19.972;2022-12-18T07:38:49;102633.78;;;-1.25;100.00
73063;BME280;61230;46.328;19.972;2022-12-18T07:41:17;102647.56;;;-1.27;100.00
73063;BME280;61230;46.328;19.972;2022-12-18T07:43:46;102643.81;;;-0.87;100.00
73063;BME280;61230;46.328;19.972;2022-12-18T07:46:14;102639.66;;;-1.07;100.00
73063;BME280;61230;46.328;19.972;2022-12-18T07:48:43;102661.09;;;-0.95;100.00
73063;BME280;61230;46.328;19.972;2022-12-18T07:51:17;102666.22;;;-0.90;100.00
73063;BME280;61230;46.328;19.972;2022-12-18T07:53:46;102659.34;;;-0.88;100.00
73063;BME280;61230;46.328;19.972;2022-12-18T07:56:19;102655.66;;;-0.63;99.86
73063;BME280;61230;46.328;19.972;2022-12-18T07:58:58;102669.22;;;-0.43;99.15
73063;BME280;61230;46.328;19.972;2022-12-18T08:01:26;102668.53;;;-0.62;99.89
73063;BME280;61230;46.328;19.972;2022-12-18T08:03:54;102677.00;;;-0.44;99.83
73063;BME280;61230;46.328;19.972;2022-12-18T08:06:22;102674.22;;;-0.26;99.44
73063;BME280;61230;46.328;19.972;2022-12-18T08:08:54;102673.69;;;-0.59;100.00
73063;BME280;61230;46.328;19.972;2022-12-18T08:11:24;102682.16;;;-0.43;100.00
73063;BME280;61230;46.328;19.972;2022-12-18T08:13:52;102684.50;;;-0.20;100.00
73063;BME280;61230;46.328;19.972;2022-12-18T08:16:21;102691.66;;;-0.48;100.00
73063;BME280;61230;46.328;19.972;2022-12-18T08:18:51;102684.59;;;-0.31;100.00
73063;BME280;61230;46.328;19.972;2022-12-18T08:21:24;102688.84;;;-0.25;99.34
73063;BME280;61230;46.328;19.972;2022-12-18T08:23:53;102692.62;;;-0.57;100.00
73063;BME280;61230;46.328;19.972;2022-12-18T08:26:22;102701.06;;;-0.39;100.00
73063;BME280;61230;46.328;19.972;2022-12-18T08:28:50;102706.94;;;-0.21;100.00
73063;BME280;61230;46.328;19.972;2022-12-18T08:31:19;102713.09;;;-0.35;100.00
73063;BME280;61230;46.328;19.972;2022-12-18T08:33:49;102711.94;;;-0.07;99.10
73063;BME280;61230;46.328;19.972;2022-12-18T08:36:18;102714.13;;;-0.53;100.00
73063;BME280;61230;46.328;19.972;2022-12-18T08:38:47;102726.75;;;-0.21;99.38
73063;BME280;61230;46.328;19.972;2022-12-18T08:41:16;102722.41;;;-0.18;98.20
73063;BME280;61230;46.328;19.972;2022-12-18T08:43:44;102724.81;;;-0.03;98.35
73063;BME280;61230;46.328;19.972;2022-12-18T08:46:34;102715.72;;;-0.38;99.42
73063;BME280;61230;46.328;19.972;2022-12-18T08:49:03;102724.72;;;0.08;97.99
73063;BME280;61230;46.328;19.972;2022-12-18T08:51:31;102726.38;;;0.12;96.39
73063;BME280;61230;46.328;19.972;2022-12-18T08:53:59;102729.88;;;0.08;96.60
73063;BME280;61230;46.328;19.972;2022-12-18T08:56:26;102724.63;;;0.16;96.66
73063;BME280;61230;46.328;19.972;2022-12-18T08:58:54;102723.69;;;0.21;96.54
73063;BME280;61230;46.328;19.972;2022-12-18T09:01:22;102724.22;;;0.47;95.21
73063;BME280;61230;46.328;19.972;2022-12-18T09:03:50;102728.50;;;0.50;94.56
73063;BME280;61230;46.328;19.972;2022-12-18T09:06:19;102731.19;;;0.42;94.17
73063;BME280;61230;46.328;19.972;2022-12-18T09:08:47;102729.38;;;0.49;94.55
73063;BME280;61230;46.328;19.972;2022-12-18T09:11:20;102730.94;;;0.61;94.29
73063;BME280;61230;46.328;19.972;2022-12-18T09:13:49;102729.31;;;0.53;94.32
73063;BME280;61230;46.328;19.972;2022-12-18T09:16:17;102727.25;;;0.13;95.45
73063;BME280;61230;46.328;19.972;2022-12-18T09:18:46;102732.94;;;0.40;95.05
73063;BME280;61230;46.328;19.972;2022-12-18T09:21:19;102733.66;;;0.51;94.33
73063;BME280;61230;46.328;19.972;2022-12-18T09:23:51;102736.91;;;0.67;93.30
73063;BME280;61230;46.328;19.972;2022-12-18T09:26:21;102735.03;;;0.77;92.37
73063;BME280;61230;46.328;19.972;2022-12-18T09:28:49;102737.88;;;0.58;92.85
73063;BME280;61230;46.328;19.972;2022-12-18T09:31:19;102742.91;;;0.71;93.05
73063;BME280;61230;46.328;19.972;2022-12-18T09:33:48;102745.50;;;0.69;92.48
73063;BME280;61230;46.328;19.972;2022-12-18T09:36:16;102743.78;;;0.70;92.69
73063;BME280;61230;46.328;19.972;2022-12-18T09:38:44;102743.25;;;0.45;94.05
73063;BME280;61230;46.328;19.972;2022-12-18T09:44:16;102744.81;;;0.55;92.37
73063;BME280;61230;46.328;19.972;2022-12-18T09:46:52;102749.00;;;0.68;93.11
73063;BME280;61230;46.328;19.972;2022-12-18T09:49:23;102746.00;;;0.94;92.15
73063;BME280;61230;46.328;19.972;2022-12-18T09:51:55;102743.91;;;1.17;89.90
73063;BME280;61230;46.328;19.972;2022-12-18T09:54:29;102741.06;;;1.34;89.42
73063;BME280;61230;46.328;19.972;2022-12-18T09:57:00;102738.19;;;0.97;90.90
73063;BME280;61230;46.328;19.972;2022-12-18T09:59:38;102733.50;;;1.22;89.34
73063;BME280;61230;46.328;19.972;2022-12-18T10:02:21;102735.66;;;0.92;91.07
73063;BME280;61230;46.328;19.972;2022-12-18T10:05:12;102728.31;;;1.20;90.53
73063;BME280;61230;46.328;19.972;2022-12-18T10:08:04;102724.66;;;1.33;87.61
73063;BME280;61230;46.328;19.972;2022-12-18T10:13:24;102733.47;;;1.23;86.11
73063;BME280;61230;46.328;19.972;2022-12-18T10:16:23;102722.66;;;1.50;85.45
73063;BME280;61230;46.328;19.972;2022-12-18T10:26:48;102712.97;;;2.04;81.60
73063;BME280;61230;46.328;19.972;2022-12-18T10:29:16;102716.47;;;2.02;82.20
73063;BME280;61230;46.328;19.972;2022-12-18T10:31:44;102711.53;;;2.33;81.17
73063;BME280;61230;46.328;19.972;2022-12-18T10:34:14;102714.16;;;2.31;79.37
73063;BME280;61230;46.328;19.972;2022-12-18T10:36:42;102712.53;;;2.25;79.04
73063;BME280;61230;46.328;19.972;2022-12-18T10:39:22;102709.34;;;2.53;78.75
73063;BME280;61230;46.328;19.972;2022-12-18T10:41:50;102706.97;;;2.44;78.41
73063;BME280;61230;46.328;19.972;2022-12-18T10:44:23;102710.56;;;2.37;77.75
73063;BME280;61230;46.328;19.972;2022-12-18T10:47:04;102720.12;;;2.35;77.72
73063;BME280;61230;46.328;19.972;2022-12-18T10:49:37;102714.37;;;2.19;78.38
73063;BME280;61230;46.328;19.972;2022-12-18T10:52:21;102711.09;;;2.52;77.51
73063;BME280;61230;46.328;19.972;2022-12-18T10:55:01;102700.59;;;2.57;77.45
73063;BME280;61230;46.328;19.972;2022-12-18T10:57:36;102703.31;;;2.51;77.14
73063;BME280;61230;46.328;19.972;2022-12-18T11:00:25;102692.59;;;2.66;76.70
73063;BME280;61230;46.328;19.972;2022-12-18T11:02:55;102701.28;;;2.65;76.42
73063;BME280;61230;46.328;19.972;2022-12-18T11:05:33;102710.06;;;2.59;77.01
73063;BME280;61230;46.328;19.972;2022-12-18T11:08:01;102706.22;;;2.77;75.18
73063;BME280;61230;46.328;19.972;2022-12-18T11:10:33;102698.16;;;2.87;74.92
73063;BME280;61230;46.328;19.972;2022-12-18T11:13:29;102700.25;;;3.09;74.66
73063;BME280;61230;46.328;19.972;2022-12-18T11:15:58;102703.44;;;3.20;73.08
73063;BME280;61230;46.328;19.972;2022-12-18T11:18:33;102693.78;;;3.25;72.83
73063;BME280;61230;46.328;19.972;2022-12-18T11:21:09;102702.38;;;3.27;72.35
73063;BME280;61230;46.328;19.972;2022-12-18T11:23:47;102700.53;;;2.97;72.95
73063;BME280;61230;46.328;19.972;2022-12-18T11:26:16;102705.47;;;3.09;72.54
73063;BME280;61230;46.328;19.972;2022-12-18T11:28:49;102696.81;;;3.07;71.74
73063;BME280;61230;46.328;19.972;2022-12-18T11:34:10;102704.59;;;3.08;72.03
73063;BME280;61230;46.328;19.972;2022-12-18T11:36:57;102689.53;;;3.21;71.35
73063;BME280;61230;46.328;19.972;2022-12-18T11:45:28;102706.12;;;2.80;72.62
73063;BME280;61230;46.328;19.972;2022-12-18T11:48:04;102709.72;;;3.11;72.52
73063;BME280;61230;46.328;19.972;2022-12-18T11:53:04;102708.28;;;3.00;71.96
73063;BME280;61230;46.328;19.972;2022-12-18T12:07:09;102711.59;;;3.06;72.46
73063;BME280;61230;46.328;19.972;2022-12-18T12:12:51;102718.06;;;2.88;71.32
73063;BME280;61230;46.328;19.972;2022-12-18T12:21:01;102722.59;;;3.16;70.23
73063;BME280;61230;46.328;19.972;2022-12-18T12:29:23;102708.66;;;3.20;69.70
73063;BME280;61230;46.328;19.972;2022-12-18T12:34:59;102692.53;;;3.06;70.81
73063;BME280;61230;46.328;19.972;2022-12-18T12:40:04;102684.72;;;3.06;71.43
73063;BME280;61230;46.328;19.972;2022-12-18T12:42:58;102682.28;;;3.00;71.94
73063;BME280;61230;46.328;19.972;2022-12-18T12:48:35;102681.91;;;3.15;71.35
73063;BME280;61230;46.328;19.972;2022-12-18T12:51:28;102689.88;;;3.07;71.75
73063;BME280;61230;46.328;19.972;2022-12-18T12:53:58;102695.94;;;3.08;71.84
73063;BME280;61230;46.328;19.972;2022-12-18T12:56:43;102694.41;;;3.01;72.26
73063;BME280;61230;46.328;19.972;2022-12-18T12:59:29;102700.06;;;3.16;72.22
73063;BME280;61230;46.328;19.972;2022-12-18T13:02:09;102697.31;;;3.22;72.22
73063;BME280;61230;46.328;19.972;2022-12-18T13:10:31;102710.00;;;2.99;73.21
73063;BME280;61230;46.328;19.972;2022-12-18T13:13:09;102711.69;;;3.02;73.90
73063;BME280;61230;46.328;19.972;2022-12-18T13:15:48;102716.84;;;2.66;75.34
73063;BME280;61230;46.328;19.972;2022-12-18T13:18:22;102715.78;;;2.75;75.27
73063;BME280;61230;46.328;19.972;2022-12-18T13:23:36;102716.94;;;2.99;74.98
73063;BME280;61230;46.328;19.972;2022-12-18T13:28:56;102731.53;;;2.69;75.01
73063;BME280;61230;46.328;19.972;2022-12-18T13:36:55;102749.09;;;2.58;75.95
73063;BME280;61230;46.328;19.972;2022-12-18T13:39:30;102751.91;;;2.47;76.17
73063;BME280;61230;46.328;19.972;2022-12-18T13:44:36;102752.81;;;2.45;76.56
73063;BME280;61230;46.328;19.972;2022-12-18T13:47:31;102756.91;;;2.56;76.50
73063;BME280;61230;46.328;19.972;2022-12-18T13:50:02;102756.91;;;2.56;76.18
73063;BME280;61230;46.328;19.972;2022-12-18T13:52:39;102757.81;;;2.55;77.01
73063;BME280;61230;46.328;19.972;2022-12-18T13:55:16;102750.84;;;2.57;76.94
73063;BME280;61230;46.328;19.972;2022-12-18T13:57:45;102750.84;;;2.56;77.54
73063;BME280;61230;46.328;19.972;2022-12-18T14:00:30;102759.06;;;2.36;77.43
73063;BME280;61230;46.328;19.972;2022-12-18T14:02:59;102773.81;;;2.34;77.53
73063;BME280;61230;46.328;19.972;2022-12-18T14:05:30;102772.94;;;2.35;77.61
73063;BME280;61230;46.328;19.972;2022-12-18T14:08:08;102769.56;;;2.30;78.38
73063;BME280;61230;46.328;19.972;2022-12-18T14:10:41;102780.22;;;2.18;78.15
73063;BME280;61230;46.328;19.972;2022-12-18T14:13:37;102786.00;;;2.30;77.95
73063;BME280;61230;46.328;19.972;2022-12-18T14:16:06;102794.88;;;2.20;78.60
73063;BME280;61230;46.328;19.972;2022-12-18T14:18:45;102783.69;;;2.18;79.21
73063;BME280;61230;46.328;19.972;2022-12-18T14:21:27;102785.53;;;2.12;79.03
73063;BME280;61230;46.328;19.972;2022-12-18T14:26:34;102792.66;;;2.01;80.13
73063;BME280;61230;46.328;19.972;2022-12-18T14:29:23;102775.41;;;1.97;79.71
73063;BME280;61230;46.328;19.972;2022-12-18T14:34:46;102797.84;;;2.01;79.88
73063;BME280;61230;46.328;19.972;2022-12-18T14:37:17;102786.81;;;1.90;80.26
73063;BME280;61230;46.328;19.972;2022-12-18T14:39:55;102796.47;;;1.80;80.81
73063;BME280;61230;46.328;19.972;2022-12-18T14:42:25;102793.22;;;1.67;80.66
73063;BME280;61230;46.328;19.972;2022-12-18T14:45:35;102788.94;;;1.66;80.96
73063;BME280;61230;46.328;19.972;2022-12-18T14:48:36;102803.78;;;1.58;81.41
73063;BME280;61230;46.328;19.972;2022-12-18T14:51:20;102808.25;;;1.50;82.03
73063;BME280;61230;46.328;19.972;2022-12-18T14:53:53;102818.56;;;1.52;81.78
73063;BME280;61230;46.328;19.972;2022-12-18T14:56:25;102817.84;;;1.44;82.19
73063;BME280;61230;46.328;19.972;2022-12-18T15:01:27;102816.25;;;1.35;82.87
73063;BME280;61230;46.328;19.972;2022-12-18T15:03:56;102821.53;;;1.29;83.11
73063;BME280;61230;46.328;19.972;2022-12-18T15:06:29;102825.97;;;1.21;83.49